Time;durP1;ratioP1;P1;durP2;ratioP2;P2;SDS_P1;SDS_P2;PMS_P1;PMS_P2;Temp;Humidity;BMP_temperature;BMP_pressure;BME280_temperature;BME280_humidity;BME280_pressure;Samples;Min_cycle;Max_cycle;Signal;HPM_P1;HPM_P2
2021/05/11 00:02:26;;;;;;;7.50;6.80;;;16.70;98.20;;;;;;5052537;28;21036;-52
2021/05/11 00:04:53;;;;;;;8.10;7.30;;;16.70;98.30;;;;;;5052156;28;20655;-52
2021/05/11 00:07:20;;;;;;;7.67;7.07;;;16.70;98.40;;;;;;5052229;28;20975;-52
2021/05/11 00:09:47;;;;;;;7.70;7.10;;;16.70;98.40;;;;;;5052440;28;20633;-52
2021/05/11 00:12:13;;;;;;;6.97;6.20;;;16.70;98.50;;;;;;5052606;28;20727;-52
2021/05/11 00:14:41;;;;;;;7.50;6.90;;;16.70;98.50;;;;;;5052311;28;20606;-52
2021/05/11 00:17:07;;;;;;;7.33;6.73;;;16.70;98.50;;;;;;5052344;28;20634;-52
2021/05/11 00:19:35;;;;;;;8.23;7.30;;;16.70;98.60;;;;;;5052351;28;21120;-52
2021/05/11 00:22:02;;;;;;;7.63;7.03;;;16.70;98.60;;;;;;5052447;28;21047;-52
2021/05/11 00:24:29;;;;;;;7.50;6.80;;;16.70;98.40;;;;;;5051648;28;20733;-52
2021/05/11 00:26:55;;;;;;;7.67;7.07;;;16.70;98.30;;;;;;5052354;28;20652;-52
2021/05/11 00:29:22;;;;;;;9.43;8.40;;;16.70;98.30;;;;;;5052133;28;20684;-52
2021/05/11 00:31:50;;;;;;;8.37;7.67;;;16.60;98.40;;;;;;5052080;28;21248;-52
2021/05/11 00:34:17;;;;;;;8.60;7.80;;;16.70;98.50;;;;;;5036133;28;20643;-52
2021/05/11 00:36:43;;;;;;;8.10;7.40;;;16.70;98.40;;;;;;5052719;28;20626;-52
2021/05/11 00:39:10;;;;;;;8.67;7.90;;;16.70;98.40;;;;;;5052196;28;20972;-52
2021/05/11 00:41:37;;;;;;;9.43;8.63;;;16.70;98.30;;;;;;5052076;28;20634;-51
2021/05/11 00:44:06;;;;;;;9.60;8.90;;;16.70;98.30;;;;;;5051907;28;20724;-52
2021/05/11 00:46:34;;;;;;;11.73;10.50;;;16.70;98.30;;;;;;5051570;28;20657;-52
2021/05/11 00:49:02;;;;;;;11.10;10.03;;;16.70;98.30;;;;;;5051622;28;21035;-52
2021/05/11 00:51:29;;;;;;;10.47;9.53;;;16.70;98.30;;;;;;5051499;28;20687;-52
2021/05/11 00:53:56;;;;;;;10.07;9.17;;;16.60;98.40;;;;;;5051942;28;20775;-53
2021/05/11 00:56:24;;;;;;;9.43;8.57;;;16.60;98.70;;;;;;5050860;28;20645;-51
2021/05/11 00:58:50;;;;;;;11.47;10.43;;;16.60;98.90;;;;;;5051686;28;20618;-52
2021/05/11 01:01:17;;;;;;;12.17;11.13;;;16.60;99.10;;;;;;5051819;28;20637;-52
2021/05/11 01:03:44;;;;;;;11.70;10.60;;;16.50;99.00;;;;;;5050679;28;20658;-52
2021/05/11 01:06:11;;;;;;;12.70;10.23;;;16.50;99.10;;;;;;5050718;28;20650;-51
2021/05/11 01:08:38;;;;;;;13.37;12.07;;;16.50;99.20;;;;;;5051303;28;20700;-51
2021/05/11 01:11:05;;;;;;;14.50;13.20;;;16.50;99.10;;;;;;5051682;28;21232;-51
2021/05/11 01:13:31;;;;;;;13.60;12.27;;;16.50;99.20;;;;;;5051320;28;20703;-51
2021/05/11 01:15:58;;;;;;;14.83;13.43;;;16.50;99.30;;;;;;5049819;28;20629;-51
2021/05/11 01:18:28;;;;;;;14.03;12.70;;;16.40;99.20;;;;;;5049440;28;21183;-51
2021/05/11 01:21:00;;;;;;;13.67;12.47;;;16.40;99.20;;;;;;5051861;28;20625;-51
2021/05/11 01:23:52;;;;;;;15.97;14.47;;;16.40;99.20;;;;;;5051247;28;20711;-51
2021/05/11 01:26:25;;;;;;;16.70;15.13;;;16.40;99.30;;;;;;5051093;28;20697;-52
2021/05/11 01:28:58;;;;;;;17.50;14.87;;;16.40;99.30;;;;;;5051054;28;20665;-51
2021/05/11 01:48:11;;;;;;;18.07;16.27;;;16.30;99.60;;;;;;5028279;28;21377;-55
2021/05/11 01:50:41;;;;;;;18.23;16.53;;;16.20;99.60;;;;;;5050351;28;20686;-56
2021/05/11 01:56:03;;;;;;;15.57;14.17;;;16.30;99.60;;;;;;5040205;28;20660;-56
2021/05/11 01:58:55;;;;;;;15.57;14.07;;;16.30;99.60;;;;;;5051919;28;20672;-56
2021/05/11 02:23:22;;;;;;;16.17;14.50;;;16.30;99.60;;;;;;5054217;28;20653;-58
2021/05/11 02:25:49;;;;;;;21.30;19.30;;;16.30;99.50;;;;;;5054500;28;20678;-58
2021/05/11 02:28:17;;;;;;;16.80;15.30;;;16.30;99.60;;;;;;5052766;28;21406;-55
2021/05/11 02:30:43;;;;;;;18.53;16.83;;;16.30;99.50;;;;;;5054364;28;20664;-56
2021/05/11 02:33:10;;;;;;;19.70;17.93;;;16.30;99.60;;;;;;5052319;28;20716;-58
2021/05/11 02:35:37;;;;;;;18.57;16.87;;;16.30;99.60;;;;;;5053974;28;20621;-55
2021/05/11 02:38:04;;;;;;;19.97;18.10;;;16.30;99.50;;;;;;5053770;28;20621;-55
2021/05/11 02:40:30;;;;;;;23.93;21.70;;;16.30;99.50;;;;;;5054160;28;21279;-57
2021/05/11 02:43:00;;;;;;;19.47;17.67;;;16.30;99.50;;;;;;5053696;28;20657;-56
2021/05/11 02:45:29;;;;;;;22.87;20.67;;;16.30;99.50;;;;;;5053628;28;20649;-56
2021/05/11 02:47:55;;;;;;;20.77;18.87;;;16.30;99.50;;;;;;5053760;28;21235;-55
2021/05/11 02:50:23;;;;;;;20.10;18.20;;;16.30;99.60;;;;;;5053799;28;20658;-55
2021/05/11 02:52:50;;;;;;;19.80;17.90;;;16.30;99.60;;;;;;5053647;28;20661;-56
2021/05/11 02:55:17;;;;;;;22.40;20.20;;;16.30;99.60;;;;;;5053969;28;20644;-58
2021/05/11 02:57:44;;;;;;;23.13;20.80;;;16.30;99.70;;;;;;5053692;28;20664;-57
2021/05/11 03:00:13;;;;;;;21.90;19.90;;;16.30;99.70;;;;;;5053292;28;20634;-57
2021/05/11 03:02:40;;;;;;;21.57;19.40;;;16.30;99.70;;;;;;5053377;28;20733;-57
2021/05/11 03:05:08;;;;;;;22.60;20.50;;;16.30;99.70;;;;;;5053240;28;20722;-57
2021/05/11 03:07:34;;;;;;;21.17;18.97;;;16.40;99.70;;;;;;5053368;28;20680;-55
2021/05/11 03:10:01;;;;;;;22.63;20.37;;;16.30;99.60;;;;;;5053498;28;20634;-57
2021/05/11 03:12:28;;;;;;;23.03;20.93;;;16.30;99.70;;;;;;5053300;28;20630;-56
2021/05/11 03:14:55;;;;;;;23.67;21.37;;;16.30;99.70;;;;;;5053489;28;20688;-55
2021/05/11 03:17:22;;;;;;;23.07;20.77;;;16.30;99.70;;;;;;5053219;28;20626;-57
2021/05/11 03:19:49;;;;;;;27.20;24.20;;;16.30;99.70;;;;;;5053266;28;20629;-55
2021/05/11 03:22:16;;;;;;;24.57;22.20;;;16.30;99.70;;;;;;5052903;28;20683;-56
2021/05/11 03:24:44;;;;;;;25.83;22.60;;;16.30;99.80;;;;;;5053258;28;20683;-57
2021/05/11 03:27:11;;;;;;;22.83;20.43;;;16.30;99.80;;;;;;5052463;28;21201;-57
2021/05/11 03:29:38;;;;;;;25.73;22.93;;;16.30;99.80;;;;;;5053050;28;20672;-56
2021/05/11 03:32:05;;;;;;;23.37;20.90;;;16.30;99.70;;;;;;5052472;28;20626;-57
2021/05/11 03:34:32;;;;;;;25.27;22.47;;;16.30;99.70;;;;;;5052745;28;20666;-58
2021/05/11 03:36:59;;;;;;;27.97;25.07;;;16.30;99.70;;;;;;5052924;28;21398;-60
2021/05/11 03:39:26;;;;;;;27.23;23.77;;;16.20;99.80;;;;;;5052649;28;21049;-57
2021/05/11 03:41:54;;;;;;;28.90;25.90;;;16.20;99.80;;;;;;5052637;28;20739;-58
2021/05/11 03:44:23;;;;;;;26.23;23.33;;;16.20;99.90;;;;;;5052391;28;20727;-57
2021/05/11 03:46:50;;;;;;;28.00;23.70;;;16.20;99.90;;;;;;5052643;28;20654;-58
2021/05/11 03:49:16;;;;;;;27.17;23.23;;;16.20;99.90;;;;;;5052680;28;20622;-58
2021/05/11 03:51:43;;;;;;;25.37;22.77;;;16.20;99.90;;;;;;5052799;28;20630;-58
2021/05/11 03:54:11;;;;;;;24.10;21.77;;;16.20;99.90;;;;;;5051260;28;20654;-57
2021/05/11 03:56:38;;;;;;;25.67;22.97;;;16.20;99.80;;;;;;5052937;28;20667;-58
2021/05/11 03:59:05;;;;;;;24.13;21.63;;;16.20;99.80;;;;;;5052394;28;20618;-57
2021/05/11 04:01:32;;;;;;;26.30;23.60;;;16.20;99.80;;;;;;5052688;28;20996;-55
2021/05/11 04:03:59;;;;;;;21.80;19.50;;;16.20;99.80;;;;;;5052047;28;20696;-57
2021/05/11 04:06:26;;;;;;;22.97;20.67;;;16.20;99.70;;;;;;5052221;28;20670;-56
2021/05/11 04:08:55;;;;;;;21.73;19.53;;;16.20;99.80;;;;;;5052360;28;21206;-56
2021/05/11 04:11:37;;;;;;;22.70;20.50;;;16.20;99.70;;;;;;5052626;28;20688;-56
2021/05/11 04:16:08;;;;;;;24.93;20.93;;;16.20;99.80;;;;;;5052342;28;20719;-56
2021/05/11 04:17:04;;;;;;;24.27;19.30;;;16.20;99.80;;;;;;5051698;28;20657;-55
2021/05/11 04:19:31;;;;;;;26.20;23.50;;;16.20;99.90;;;;;;5051985;28;20622;-55
2021/05/11 04:21:58;;;;;;;25.87;22.97;;;16.20;99.90;;;;;;5051943;28;20634;-56
2021/05/11 04:24:26;;;;;;;24.20;21.63;;;16.20;99.90;;;;;;5052284;28;20650;-56
2021/05/11 04:26:54;;;;;;;25.20;22.47;;;16.20;99.90;;;;;;5051947;28;20653;-55
2021/05/11 04:29:20;;;;;;;26.87;23.47;;;16.20;99.90;;;;;;5051802;28;20647;-56
2021/05/11 04:31:47;;;;;;;23.37;20.83;;;16.20;99.90;;;;;;5051975;28;20688;-58
2021/05/11 04:34:14;;;;;;;24.43;20.23;;;16.20;99.90;;;;;;5040392;28;20717;-57
2021/05/11 04:36:41;;;;;;;22.17;19.90;;;16.20;99.90;;;;;;5051658;28;20630;-57
2021/05/11 04:39:08;;;;;;;24.73;22.27;;;16.20;99.90;;;;;;5050521;28;20622;-57
2021/05/11 04:41:34;;;;;;;22.00;19.53;;;16.20;99.90;;;;;;5051921;28;20950;-57
2021/05/11 04:44:04;;;;;;;18.80;16.83;;;16.20;99.90;;;;;;5051423;28;20711;-57
2021/05/11 04:46:42;;;;;;;20.90;18.80;;;16.20;99.80;;;;;;5051411;28;20711;-56
2021/05/11 04:49:09;;;;;;;24.07;21.67;;;16.20;99.80;;;;;;5051584;28;21174;-57
2021/05/11 04:51:36;;;;;;;25.60;23.00;;;16.30;99.80;;;;;;5052008;28;20626;-57
2021/05/11 04:54:03;;;;;;;24.23;21.77;;;16.30;99.70;;;;;;5051347;28;20666;-60
2021/05/11 04:56:30;;;;;;;23.13;20.77;;;16.30;99.70;;;;;;5051202;28;20653;-57
2021/05/11 04:58:57;;;;;;;22.40;20.00;;;16.30;99.70;;;;;;5051143;28;20648;-58
2021/05/11 05:01:24;;;;;;;23.70;21.30;;;16.30;99.60;;;;;;5051669;28;20629;-58
2021/05/11 05:03:53;;;;;;;23.27;20.77;;;16.30;99.60;;;;;;5051180;28;20662;-57
2021/05/11 05:06:20;;;;;;;26.27;23.57;;;16.30;99.50;;;;;;5051437;28;20666;-58
2021/05/11 05:08:47;;;;;;;23.37;21.03;;;16.30;99.50;;;;;;5051016;28;21038;-58
2021/05/11 05:11:17;;;;;;;20.10;18.10;;;16.20;99.50;;;;;;5049798;28;20987;-60
2021/05/11 05:13:43;;;;;;;22.23;18.80;;;16.20;99.30;;;;;;5050848;28;20654;-58
2021/05/11 05:16:10;;;;;;;20.50;18.40;;;16.20;99.30;;;;;;5050964;28;20614;-62
2021/05/11 05:18:38;;;;;;;23.80;21.30;;;16.20;99.40;;;;;;5051433;28;20626;-58
2021/05/11 05:21:07;;;;;;;23.17;20.97;;;16.20;99.50;;;;;;5049808;28;20687;-58
2021/05/11 05:23:39;;;;;;;23.03;20.73;;;16.20;99.50;;;;;;5049655;28;20654;-59
2021/05/11 05:26:07;;;;;;;29.33;26.23;;;16.20;99.40;;;;;;5051037;28;21068;-58
2021/05/11 05:28:36;;;;;;;24.00;20.90;;;16.20;99.40;;;;;;5050296;28;20687;-59
2021/05/11 05:31:03;;;;;;;24.87;22.27;;;16.20;99.50;;;;;;5049646;28;20622;-57
2021/05/11 05:33:31;;;;;;;26.43;23.60;;;16.10;99.40;;;;;;5050486;28;21005;-57
2021/05/11 05:35:59;;;;;;;25.40;22.60;;;16.10;99.60;;;;;;5053708;28;20645;-56
2021/05/11 05:38:27;;;;;;;25.73;21.57;;;16.10;99.60;;;;;;5059447;28;20625;-57
2021/05/11 05:40:57;;;;;;;24.47;21.87;;;16.10;99.70;;;;;;5070568;28;21243;-57
2021/05/11 05:43:24;;;;;;;24.07;20.80;;;16.00;99.80;;;;;;5055317;28;20701;-57
2021/05/11 05:45:53;;;;;;;19.93;17.03;;;16.10;99.80;;;;;;5050677;28;21122;-59
2021/05/11 05:48:20;;;;;;;20.13;17.90;;;16.10;99.70;;;;;;5050661;28;21230;-58
2021/05/11 05:50:49;;;;;;;16.77;14.90;;;16.10;99.60;;;;;;5053734;28;20626;-60
2021/05/11 05:53:23;;;;;;;15.97;14.30;;;16.10;99.50;;;;;;5054596;28;20650;-60
2021/05/11 05:55:50;;;;;;;15.40;13.97;;;16.10;99.40;;;;;;5054778;28;20991;-57
2021/05/11 05:58:17;;;;;;;16.03;14.53;;;16.20;99.30;;;;;;5054424;28;20684;-57
2021/05/11 06:00:44;;;;;;;14.13;12.10;;;16.20;99.20;;;;;;5055003;28;20988;-58
2021/05/11 06:05:52;;;;;;;14.00;12.63;;;16.20;99.20;;;;;;5052473;28;20948;-58
2021/05/11 06:08:20;;;;;;;13.30;12.00;;;16.30;99.10;;;;;;5053731;28;21178;-57
2021/05/11 06:10:48;;;;;;;12.40;11.10;;;16.30;99.00;;;;;;5054178;28;21053;-57
2021/05/11 06:13:18;;;;;;;11.30;10.20;;;16.40;99.00;;;;;;5054262;28;20696;-58
2021/05/11 06:18:29;;;;;;;12.83;11.70;;;16.40;99.10;;;;;;5053507;28;20610;-57
2021/05/11 06:20:56;;;;;;;11.70;10.60;;;16.50;98.70;;;;;;5050515;28;20633;-59
2021/05/11 06:23:24;;;;;;;12.43;11.00;;;16.50;98.50;;;;;;5053123;28;20685;-57
2021/05/11 06:25:50;;;;;;;10.87;9.97;;;16.60;98.50;;;;;;5053839;28;20622;-58
2021/05/11 06:28:17;;;;;;;11.27;10.10;;;16.60;98.10;;;;;;5053091;28;20629;-58
2021/05/11 06:30:44;;;;;;;11.30;10.33;;;16.50;98.00;;;;;;5054098;28;20622;-59
2021/05/11 06:33:11;;;;;;;10.53;9.63;;;16.50;98.00;;;;;;5053564;28;20673;-56
2021/05/11 06:35:38;;;;;;;11.57;10.67;;;16.50;98.20;;;;;;5046850;28;21257;-58
2021/05/11 06:38:05;;;;;;;9.73;8.93;;;16.50;98.30;;;;;;5035553;28;20667;-57
2021/05/11 06:40:35;;;;;;;9.43;8.53;;;16.50;98.30;;;;;;5053737;28;20622;-56
2021/05/11 06:43:02;;;;;;;10.20;9.37;;;16.50;98.10;;;;;;5053024;28;20646;-58
2021/05/11 06:48:21;;;;;;;9.33;8.53;;;16.50;97.70;;;;;;5014610;28;20977;-58
2021/05/11 06:53:32;;;;;;;12.83;11.63;;;16.30;98.00;;;;;;5052316;28;20641;-56
2021/05/11 06:55:59;;;;;;;13.80;12.60;;;16.30;98.40;;;;;;5053783;28;20636;-57
2021/05/11 06:58:26;;;;;;;14.73;13.43;;;16.20;98.80;;;;;;5053864;28;20679;-58
2021/05/11 07:00:53;;;;;;;16.70;15.30;;;16.10;99.00;;;;;;5053541;28;21025;-57
2021/05/11 07:03:20;;;;;;;15.40;14.13;;;16.10;99.20;;;;;;5052766;28;20697;-56
2021/05/11 07:05:47;;;;;;;15.10;13.90;;;16.10;99.40;;;;;;5053492;28;20671;-59
2021/05/11 07:08:16;;;;;;;15.10;13.73;;;16.10;99.50;;;;;;5053410;28;20703;-57
2021/05/11 07:10:47;;;;;;;14.17;12.87;;;16.20;99.60;;;;;;5054143;28;20627;-58
2021/05/11 07:13:15;;;;;;;13.37;12.27;;;16.10;99.60;;;;;;5054580;28;20707;-56
2021/05/11 07:15:42;;;;;;;11.80;10.80;;;16.20;99.70;;;;;;5054527;28;20614;-57
2021/05/11 07:18:11;;;;;;;12.57;11.47;;;16.20;99.60;;;;;;5056852;28;20625;-56
2021/05/11 07:20:38;;;;;;;12.43;11.30;;;16.20;99.60;;;;;;5069395;28;20622;-57
2021/05/11 07:23:05;;;;;;;10.20;9.30;;;16.30;99.70;;;;;;5070891;28;20664;-58
2021/05/11 07:25:36;;;;;;;11.13;9.10;;;16.30;99.60;;;;;;5068554;28;20626;-57
2021/05/11 07:30:46;;;;;;;8.00;7.40;;;16.50;99.30;;;;;;5048901;28;20626;-59
2021/05/11 07:33:13;;;;;;;8.43;7.63;;;16.60;99.10;;;;;;5067496;22;20735;-53
2021/05/11 07:35:41;;;;;;;9.37;8.00;;;16.70;99.40;;;;;;5052639;28;20636;-53
2021/05/11 07:38:08;;;;;;;9.53;8.73;;;16.70;98.60;;;;;;5052655;28;20622;-53
2021/05/11 07:40:35;;;;;;;9.37;8.60;;;16.70;98.70;;;;;;5040278;28;20641;-51
2021/05/11 07:43:02;;;;;;;7.90;7.30;;;16.70;98.70;;;;;;5033016;28;20677;-51
2021/05/11 07:45:39;;;;;;;8.73;7.93;;;16.70;98.70;;;;;;5032645;28;20654;-52
2021/05/11 07:48:16;;;;;;;9.00;8.30;;;16.70;98.60;;;;;;5032137;28;20677;-51
2021/05/11 08:01:54;;;;;;;8.90;8.10;;;16.90;98.40;;;;;;5032993;28;20587;-53
2021/05/11 08:02:48;;;;;;;7.97;7.37;;;17.00;98.40;;;;;;5015138;28;22282;-51
2021/05/11 08:05:21;;;;;;;8.87;8.20;;;17.00;98.50;;;;;;5024393;28;21175;-52
2021/05/11 08:10:51;;;;;;;8.10;7.33;;;17.10;98.20;;;;;;5032600;28;21154;-53
2021/05/11 08:16:10;;;;;;;9.00;8.37;;;17.20;97.80;;;;;;4977501;28;21062;-52
2021/05/11 08:18:44;;;;;;;8.17;7.37;;;17.20;97.70;;;;;;5030091;28;20676;-53
2021/05/11 08:29:24;;;;;;;8.40;7.80;;;17.40;97.10;;;;;;5028142;28;20616;-53
2021/05/11 08:31:51;;;;;;;9.43;7.30;;;17.50;97.10;;;;;;5012454;28;20689;-53
2021/05/11 08:34:18;;;;;;;7.53;6.93;;;17.50;97.30;;;;;;5023649;28;20682;-52
2021/05/11 08:36:46;;;;;;;8.07;7.27;;;17.60;97.20;;;;;;5024553;28;20769;-52
2021/05/11 08:39:13;;;;;;;7.00;6.50;;;17.60;96.90;;;;;;5031515;28;20637;-52
2021/05/11 08:41:39;;;;;;;7.30;6.63;;;17.60;97.00;;;;;;5021653;28;20624;-53
2021/05/11 08:44:08;;;;;;;7.27;6.77;;;17.70;96.90;;;;;;5026575;28;20663;-51
2021/05/11 08:46:36;;;;;;;7.17;6.57;;;17.70;97.00;;;;;;5029355;28;20631;-53
2021/05/11 08:49:06;;;;;;;6.70;6.20;;;17.70;97.10;;;;;;5031459;28;20626;-53
2021/05/11 08:51:37;;;;;;;7.47;6.77;;;17.80;97.00;;;;;;5030890;28;21004;-51
2021/05/11 08:54:18;;;;;;;6.97;6.47;;;17.80;96.80;;;;;;5031046;28;20651;-52
2021/05/11 09:05:22;;;;;;;6.97;6.47;;;18.10;96.60;;;;;;5032034;28;20610;-51
2021/05/11 09:27:20;;;;;;;5.70;4.00;;;19.10;94.60;;;;;;5046123;28;20739;-52
2021/05/11 09:30:00;;;;;;;4.93;4.53;;;19.30;94.70;;;;;;5051286;28;20632;-53
2021/05/11 09:32:41;;;;;;;4.93;4.53;;;19.40;94.20;;;;;;5035195;28;20639;-54
2021/05/11 09:45:01;;;;;;;3.80;3.50;;;19.50;93.70;;;;;;5031068;28;21214;-54
2021/05/11 10:39:45;;;;;;;5.20;4.10;;;19.10;93.20;;;;;;5085187;28;20613;-52
2021/05/11 10:48:17;;;;;;;4.00;3.70;;;19.00;92.90;;;;;;5065134;28;20592;-51
2021/05/11 10:50:46;;;;;;;4.57;3.60;;;19.00;92.60;;;;;;5122421;28;21024;-52
2021/05/11 10:53:54;;;;;;;3.37;3.07;;;19.00;92.90;;;;;;5127350;27;20651;-52
2021/05/11 10:57:03;;;;;;;6.20;3.87;;;18.90;92.70;;;;;;5128296;27;20699;-52
2021/05/11 10:59:53;;;;;;;3.60;3.30;;;18.90;93.00;;;;;;5127010;27;20663;-52
2021/05/11 11:05:35;;;;;;;4.00;3.70;;;18.80;93.30;;;;;;5127790;27;20935;-51
2021/05/11 11:08:03;;;;;;;4.20;3.90;;;18.80;93.30;;;;;;5126620;28;20644;-52
2021/05/11 11:10:30;;;;;;;3.90;3.60;;;18.70;93.40;;;;;;5112416;27;20984;-53
2021/05/11 11:12:58;;;;;;;4.47;3.80;;;18.70;93.40;;;;;;5130372;27;20723;-51
2021/05/11 11:15:25;;;;;;;3.93;3.63;;;18.60;93.40;;;;;;5134885;27;20635;-51
2021/05/11 11:17:55;;;;;;;4.43;4.13;;;18.50;94.00;;;;;;5124931;27;20705;-51
2021/05/11 11:20:31;;;;;;;4.10;3.67;;;18.60;93.90;;;;;;5114219;28;21183;-52
2021/05/11 11:26:01;;;;;;;5.80;3.67;;;18.70;93.80;;;;;;5113494;28;21243;-52
2021/05/11 11:28:29;;;;;;;4.20;3.10;;;18.80;93.80;;;;;;5113432;28;20653;-53
2021/05/11 11:30:56;;;;;;;2.87;2.67;;;18.90;93.30;;;;;;5114121;28;20619;-52
2021/05/11 11:33:23;;;;;;;2.77;2.57;;;18.90;92.90;;;;;;5113370;28;20659;-52
2021/05/11 11:35:50;;;;;;;2.07;1.97;;;18.90;93.00;;;;;;5113709;28;20619;-53
2021/05/11 11:38:24;;;;;;;2.50;2.30;;;18.90;92.80;;;;;;5112886;28;20704;-52
2021/05/11 11:41:02;;;;;;;3.00;2.57;;;18.90;92.70;;;;;;5114031;28;20622;-52
2021/05/11 11:43:29;;;;;;;3.27;3.07;;;19.00;92.60;;;;;;5113409;28;20643;-52
2021/05/11 11:45:56;;;;;;;4.20;3.90;;;19.10;92.60;;;;;;5113592;28;20627;-51
2021/05/11 11:48:24;;;;;;;4.43;3.90;;;19.20;92.70;;;;;;5112595;28;20619;-52
2021/05/11 11:50:58;;;;;;;3.93;3.63;;;19.20;93.00;;;;;;5113130;28;20679;-52
2021/05/11 11:53:34;;;;;;;5.30;4.80;;;19.30;93.00;;;;;;5112183;27;20651;-52
2021/05/11 11:56:25;;;;;;;4.93;4.57;;;19.30;92.80;;;;;;5093188;28;20616;-52
2021/05/11 11:59:03;;;;;;;4.73;4.17;;;19.20;93.10;;;;;;5100364;28;21070;-53
2021/05/11 12:01:30;;;;;;;4.83;4.53;;;19.20;92.90;;;;;;5103235;28;20650;-53
2021/05/11 12:03:57;;;;;;;5.30;4.00;;;19.20;92.90;;;;;;5113751;27;20647;-51
2021/05/11 12:06:28;;;;;;;5.13;4.70;;;19.20;93.00;;;;;;5110862;28;20654;-53
2021/05/11 12:08:55;;;;;;;4.30;4.00;;;19.10;93.00;;;;;;5112896;28;20637;-52
2021/05/11 12:11:23;;;;;;;4.93;4.33;;;19.10;92.60;;;;;;5112624;28;21065;-52
2021/05/11 12:13:50;;;;;;;4.67;4.27;;;19.00;93.00;;;;;;5112898;28;21105;-52
2021/05/11 12:16:18;;;;;;;6.10;4.43;;;19.00;93.20;;;;;;5112918;28;20689;-52
2021/05/11 12:19:05;;;;;;;4.40;3.60;;;19.10;93.00;;;;;;5112602;27;20704;-52
2021/05/11 12:21:33;;;;;;;4.00;3.70;;;19.10;92.50;;;;;;5116386;27;21027;-53
2021/05/11 12:24:07;;;;;;;4.87;4.03;;;19.00;92.30;;;;;;5129240;27;21056;-52
2021/05/11 12:26:35;;;;;;;4.97;4.17;;;18.90;92.70;;;;;;5120956;27;21302;-52
2021/05/11 12:29:06;;;;;;;4.50;3.80;;;18.90;92.80;;;;;;5112808;28;20619;-52
2021/05/11 12:31:35;;;;;;;3.50;3.30;;;18.90;93.20;;;;;;5116187;27;20624;-52
2021/05/11 12:34:05;;;;;;;3.63;3.37;;;18.90;93.30;;;;;;5119453;27;20663;-52
2021/05/11 12:36:31;;;;;;;6.23;4.10;;;18.80;93.50;;;;;;5113656;27;21223;-52
2021/05/11 12:39:24;;;;;;;3.03;2.73;;;18.60;93.60;;;;;;5123626;27;21232;-53
2021/05/11 12:41:52;;;;;;;4.10;3.80;;;18.60;94.20;;;;;;5112833;28;21045;-51
2021/05/11 12:44:29;;;;;;;3.57;3.00;;;18.60;94.50;;;;;;5111859;28;20684;-50
2021/05/11 12:46:59;;;;;;;3.50;3.20;;;18.40;94.60;;;;;;5112003;28;20665;-51
2021/05/11 12:49:26;;;;;;;5.37;3.40;;;18.20;94.70;;;;;;5107502;28;20680;-51
2021/05/11 12:51:54;;;;;;;3.10;2.87;;;18.10;95.00;;;;;;5112620;28;20615;-51
2021/05/11 12:54:25;;;;;;;3.10;2.70;;;18.00;95.10;;;;;;5112044;28;21284;-52
2021/05/11 12:59:43;;;;;;;4.03;3.73;;;17.90;95.50;;;;;;5112222;28;20673;-51
2021/05/11 13:02:25;;;;;;;3.47;3.00;;;17.90;95.30;;;;;;5118897;27;20614;-51
2021/05/11 13:05:04;;;;;;;2.80;2.00;;;18.00;95.30;;;;;;5106220;28;20651;-50
2021/05/11 13:26:45;;;;;;;3.90;1.80;;;17.50;95.10;;;;;;5125669;27;20664;-51
2021/05/11 13:29:23;;;;;;;7.33;6.57;;;17.50;94.90;;;;;;5117824;27;20666;-53
2021/05/11 13:31:55;;;;;;;2.27;2.03;;;17.60;94.80;;;;;;5113039;27;20719;-52
2021/05/11 13:34:22;;;;;;;2.10;1.93;;;17.70;94.20;;;;;;5114118;27;20716;-52
2021/05/11 13:36:49;;;;;;;2.70;2.27;;;17.70;94.20;;;;;;5120378;27;20675;-52
2021/05/11 13:39:15;;;;;;;1.80;1.70;;;17.80;94.20;;;;;;5111279;27;20648;-52
2021/05/11 13:41:44;;;;;;;1.77;1.67;;;17.90;94.20;;;;;;5127196;27;20611;-52
2021/05/11 13:44:10;;;;;;;1.80;1.70;;;17.90;93.00;;;;;;5132339;27;21213;-52
2021/05/11 13:46:38;;;;;;;1.50;1.20;;;17.90;92.80;;;;;;5131575;27;20626;-52
2021/05/11 13:49:05;;;;;;;1.63;1.53;;;17.90;92.20;;;;;;5132002;27;20618;-52
2021/05/11 13:51:32;;;;;;;1.77;1.67;;;17.80;92.90;;;;;;5114573;27;20688;-51
2021/05/11 13:54:02;;;;;;;3.63;1.80;;;17.80;93.50;;;;;;5110040;28;20732;-52
2021/05/11 13:56:49;;;;;;;2.10;2.00;;;17.70;93.40;;;;;;5114051;28;20672;-53
2021/05/11 14:02:20;;;;;;;2.47;1.97;;;17.60;94.20;;;;;;5111403;28;20657;-53
2021/05/11 14:04:47;;;;;;;2.00;1.90;;;17.60;94.80;;;;;;5111417;28;20688;-53
2021/05/11 14:07:14;;;;;;;3.77;2.00;;;17.50;94.80;;;;;;5110888;28;20687;-52
2021/05/11 14:09:41;;;;;;;2.70;2.50;;;17.40;95.00;;;;;;5110537;28;20631;-53
2021/05/11 14:12:08;;;;;;;2.13;2.03;;;17.50;95.30;;;;;;5112568;28;20696;-52
2021/05/11 14:14:35;;;;;;;2.80;2.60;;;17.50;95.50;;;;;;5110784;28;20643;-53
2021/05/11 14:17:03;;;;;;;2.73;2.53;;;17.60;95.90;;;;;;5111316;28;20639;-53
2021/05/11 14:19:30;;;;;;;8.93;3.40;;;17.60;96.00;;;;;;5110669;28;20694;-53
2021/05/11 14:21:57;;;;;;;2.93;2.70;;;17.50;95.70;;;;;;5110655;28;20615;-53
2021/05/11 14:24:24;;;;;;;2.80;2.60;;;17.50;95.60;;;;;;5111230;28;21248;-53
2021/05/11 14:26:51;;;;;;;4.17;2.70;;;17.40;95.90;;;;;;5113908;28;20619;-53
2021/05/11 14:29:18;;;;;;;2.47;2.00;;;17.30;96.20;;;;;;5107420;28;20972;-53
2021/05/11 14:31:45;;;;;;;2.67;2.47;;;17.30;96.60;;;;;;5110882;28;20871;-51
2021/05/11 14:34:14;;;;;;;2.60;2.40;;;17.40;96.70;;;;;;5110014;28;20659;-52
2021/05/11 14:36:40;;;;;;;3.20;1.90;;;17.50;96.50;;;;;;5111014;28;20661;-53
2021/05/11 14:39:07;;;;;;;2.43;2.23;;;17.50;96.20;;;;;;5110639;28;20697;-50
2021/05/11 14:41:34;;;;;;;2.57;2.30;;;17.50;96.20;;;;;;5110706;28;20706;-51
2021/05/11 14:44:01;;;;;;;3.63;2.00;;;17.60;96.50;;;;;;5110553;28;20708;-50
2021/05/11 14:46:29;;;;;;;2.20;2.00;;;17.70;96.60;;;;;;5110760;28;21038;-51
2021/05/11 14:48:56;;;;;;;2.07;1.97;;;17.70;96.40;;;;;;5128939;27;21178;-53
2021/05/11 14:51:24;;;;;;;2.33;1.60;;;17.80;95.50;;;;;;5135462;27;20730;-52
2021/05/11 14:53:51;;;;;;;1.67;1.57;;;17.70;95.10;;;;;;5135141;27;20650;-51
2021/05/11 14:56:17;;;;;;;1.50;1.40;;;17.60;95.10;;;;;;5114378;28;20680;-52
2021/05/11 14:58:44;;;;;;;1.40;1.17;;;17.60;95.20;;;;;;5114086;27;20689;-52
2021/05/11 15:01:11;;;;;;;1.17;1.07;;;17.70;95.30;;;;;;5114128;28;20611;-52
2021/05/11 15:03:38;;;;;;;1.33;0.83;;;17.60;94.90;;;;;;5113817;28;20685;-52
2021/05/11 15:06:05;;;;;;;1.57;1.47;;;17.50;94.90;;;;;;5113913;28;20774;-52
2021/05/11 15:08:33;;;;;;;3.13;1.73;;;17.50;95.30;;;;;;5113946;28;20607;-52
2021/05/11 15:11:00;;;;;;;2.17;1.67;;;17.50;95.10;;;;;;5114398;28;20623;-52
2021/05/11 15:13:27;;;;;;;1.60;1.50;;;17.50;95.30;;;;;;5113534;28;20655;-52
2021/05/11 15:15:56;;;;;;;1.90;1.50;;;17.40;95.60;;;;;;5114085;28;20653;-52
2021/05/11 15:18:23;;;;;;;1.50;1.40;;;17.40;95.70;;;;;;5113468;28;20715;-52
2021/05/11 15:20:49;;;;;;;2.33;1.73;;;17.50;95.80;;;;;;5113899;28;20684;-51
2021/05/11 15:23:16;;;;;;;2.80;1.97;;;17.40;96.00;;;;;;5113525;28;20666;-52
2021/05/11 15:25:46;;;;;;;1.70;1.50;;;17.40;95.80;;;;;;5114179;28;20661;-52
2021/05/11 15:28:12;;;;;;;1.23;1.13;;;17.40;95.80;;;;;;5114216;28;20674;-52
2021/05/11 15:30:39;;;;;;;2.00;1.90;;;17.30;95.60;;;;;;5114108;28;20619;-52
2021/05/11 15:33:08;;;;;;;1.90;1.80;;;17.30;96.10;;;;;;5113585;28;20699;-52
2021/05/11 15:35:35;;;;;;;4.83;2.83;;;17.20;96.30;;;;;;5114038;28;20993;-52
2021/05/11 15:38:03;;;;;;;2.73;2.30;;;17.20;96.40;;;;;;5113982;28;20801;-52
2021/05/11 15:40:31;;;;;;;2.43;1.93;;;17.20;96.50;;;;;;5108602;27;20699;-52
2021/05/11 15:42:58;;;;;;;4.20;3.03;;;17.30;96.70;;;;;;5113714;28;21199;-53
2021/05/11 15:45:25;;;;;;;2.77;2.57;;;17.30;96.80;;;;;;5114239;28;21050;-52
2021/05/11 15:47:53;;;;;;;2.43;2.23;;;17.40;96.70;;;;;;5113952;28;20658;-52
2021/05/11 15:50:24;;;;;;;2.53;2.33;;;17.40;96.70;;;;;;5113273;28;20612;-51
2021/05/11 15:52:51;;;;;;;2.77;2.50;;;17.50;96.80;;;;;;5113679;28;21259;-51
2021/05/11 15:55:17;;;;;;;4.63;2.67;;;17.50;96.50;;;;;;5113613;27;20630;-51
2021/05/11 15:57:44;;;;;;;2.90;2.60;;;17.40;96.40;;;;;;5113197;28;20708;-51
2021/05/11 16:00:13;;;;;;;2.60;2.40;;;17.40;96.70;;;;;;5113671;28;20635;-51
2021/05/11 16:02:40;;;;;;;4.73;3.20;;;17.40;96.90;;;;;;5113676;28;20619;-52
2021/05/11 16:05:07;;;;;;;4.70;3.03;;;17.40;97.00;;;;;;5113668;28;20635;-52
2021/05/11 16:07:34;;;;;;;3.30;3.00;;;17.40;97.00;;;;;;5112404;28;20631;-52
2021/05/11 16:10:05;;;;;;;3.77;3.47;;;17.40;97.00;;;;;;5113404;28;21045;-51
2021/05/11 16:12:32;;;;;;;3.90;3.60;;;17.30;96.90;;;;;;5113732;28;21310;-51
2021/05/11 16:15:00;;;;;;;3.30;3.10;;;17.30;97.10;;;;;;5105349;28;20693;-51